sensor_id;sensor_type;location;lat;lon;timestamp;temperature;humidity
4215;DHT22;2121;48.062;7.850;2023-07-31T00:00:30;13.90;99.90
4215;DHT22;2121;48.062;7.850;2023-07-31T00:02:56;13.90;99.90
4215;DHT22;2121;48.062;7.850;2023-07-31T00:05:21;13.90;99.90
4215;DHT22;2121;48.062;7.850;2023-07-31T00:07:47;13.90;99.90
4215;DHT22;2121;48.062;7.850;2023-07-31T00:10:13;14.00;99.90
4215;DHT22;2121;48.062;7.850;2023-07-31T00:12:41;13.90;99.90
4215;DHT22;2121;48.062;7.850;2023-07-31T00:15:08;13.90;99.90
4215;DHT22;2121;48.062;7.850;2023-07-31T00:17:34;13.80;99.90
4215;DHT22;2121;48.062;7.850;2023-07-31T00:20:01;13.80;99.90
4215;DHT22;2121;48.062;7.850;2023-07-31T00:22:27;13.80;99.90
4215;DHT22;2121;48.062;7.850;2023-07-31T00:24:53;13.80;99.90
4215;DHT22;2121;48.062;7.850;2023-07-31T00:27:18;13.80;99.90
4215;DHT22;2121;48.062;7.850;2023-07-31T00:29:44;13.80;99.90
4215;DHT22;2121;48.062;7.850;2023-07-31T00:32:10;13.70;99.90
4215;DHT22;2121;48.062;7.850;2023-07-31T00:34:36;13.70;99.90
4215;DHT22;2121;48.062;7.850;2023-07-31T00:37:03;13.60;99.90
4215;DHT22;2121;48.062;7.850;2023-07-31T00:39:30;13.60;99.90
4215;DHT22;2121;48.062;7.850;2023-07-31T00:41:56;13.50;99.90
4215;DHT22;2121;48.062;7.850;2023-07-31T00:44:22;13.50;99.90
4215;DHT22;2121;48.062;7.850;2023-07-31T00:46:48;13.40;99.90
4215;DHT22;2121;48.062;7.850;2023-07-31T00:49:14;13.30;99.90
4215;DHT22;2121;48.062;7.850;2023-07-31T00:51:41;13.30;99.90
4215;DHT22;2121;48.062;7.850;2023-07-31T00:54:07;13.30;99.90
4215;DHT22;2121;48.062;7.850;2023-07-31T00:56:33;13.20;99.90
4215;DHT22;2121;48.062;7.850;2023-07-31T00:58:59;13.20;99.90
4215;DHT22;2121;48.062;7.850;2023-07-31T01:01:25;13.20;99.90
4215;DHT22;2121;48.062;7.850;2023-07-31T01:03:52;13.10;99.90
4215;DHT22;2121;48.062;7.850;2023-07-31T01:09:29;13.20;99.90
4215;DHT22;2121;48.062;7.850;2023-07-31T01:12:02;13.20;99.90
4215;DHT22;2121;48.062;7.850;2023-07-31T01:14:30;13.20;99.90
4215;DHT22;2121;48.062;7.850;2023-07-31T01:16:55;13.10;99.90
4215;DHT22;2121;48.062;7.850;2023-07-31T01:19:23;13.10;99.90
4215;DHT22;2121;48.062;7.850;2023-07-31T01:28:28;12.90;99.90
4215;DHT22;2121;48.062;7.850;2023-07-31T01:31:00;12.80;99.90
4215;DHT22;2121;48.062;7.850;2023-07-31T01:33:28;12.90;99.90
4215;DHT22;2121;48.062;7.850;2023-07-31T01:35:54;13.00;99.90
4215;DHT22;2121;48.062;7.850;2023-07-31T01:38:21;13.00;99.90
4215;DHT22;2121;48.062;7.850;2023-07-31T01:40:51;13.00;99.90
4215;DHT22;2121;48.062;7.850;2023-07-31T01:43:18;12.90;99.90
4215;DHT22;2121;48.062;7.850;2023-07-31T01:45:44;12.90;99.90
4215;DHT22;2121;48.062;7.850;2023-07-31T01:48:09;12.80;99.90
4215;DHT22;2121;48.062;7.850;2023-07-31T01:50:35;12.80;99.90
4215;DHT22;2121;48.062;7.850;2023-07-31T01:53:01;12.70;99.90
4215;DHT22;2121;48.062;7.850;2023-07-31T01:55:27;12.70;99.90
4215;DHT22;2121;48.062;7.850;2023-07-31T01:57:53;12.70;99.90
4215;DHT22;2121;48.062;7.850;2023-07-31T02:00:19;12.80;99.90
4215;DHT22;2121;48.062;7.850;2023-07-31T02:02:44;12.70;99.90
4215;DHT22;2121;48.062;7.850;2023-07-31T02:05:10;12.70;99.90
4215;DHT22;2121;48.062;7.850;2023-07-31T02:07:36;12.70;99.90
4215;DHT22;2121;48.062;7.850;2023-07-31T02:10:02;12.60;99.90
4215;DHT22;2121;48.062;7.850;2023-07-31T02:12:27;12.60;99.90
4215;DHT22;2121;48.062;7.850;2023-07-31T02:14:56;12.60;99.90
4215;DHT22;2121;48.062;7.850;2023-07-31T02:17:22;12.60;99.90
4215;DHT22;2121;48.062;7.850;2023-07-31T02:19:47;12.60;99.90
4215;DHT22;2121;48.062;7.850;2023-07-31T02:22:13;12.60;99.90
4215;DHT22;2121;48.062;7.850;2023-07-31T02:24:39;12.60;99.90
4215;DHT22;2121;48.062;7.850;2023-07-31T02:27:05;12.50;99.90
4215;DHT22;2121;48.062;7.850;2023-07-31T02:29:31;12.50;99.90
4215;DHT22;2121;48.062;7.850;2023-07-31T02:31:56;12.50;99.90
4215;DHT22;2121;48.062;7.850;2023-07-31T02:34:22;12.50;99.90
4215;DHT22;2121;48.062;7.850;2023-07-31T02:36:48;12.50;99.90
4215;DHT22;2121;48.062;7.850;2023-07-31T02:39:13;12.50;99.90
4215;DHT22;2121;48.062;7.850;2023-07-31T02:41:39;12.50;99.90
4215;DHT22;2121;48.062;7.850;2023-07-31T02:44:05;12.50;99.90
4215;DHT22;2121;48.062;7.850;2023-07-31T02:46:31;12.40;99.90
4215;DHT22;2121;48.062;7.850;2023-07-31T02:48:56;12.40;99.90
4215;DHT22;2121;48.062;7.850;2023-07-31T02:51:22;12.40;99.90
4215;DHT22;2121;48.062;7.850;2023-07-31T02:53:48;12.40;99.90
4215;DHT22;2121;48.062;7.850;2023-07-31T02:56:15;12.40;99.90
4215;DHT22;2121;48.062;7.850;2023-07-31T02:58:40;12.30;99.90
4215;DHT22;2121;48.062;7.850;2023-07-31T03:01:06;12.20;99.90
4215;DHT22;2121;48.062;7.850;2023-07-31T03:03:32;12.20;99.90
4215;DHT22;2121;48.062;7.850;2023-07-31T03:05:57;12.20;99.90
4215;DHT22;2121;48.062;7.850;2023-07-31T03:08:23;12.20;99.90
4215;DHT22;2121;48.062;7.850;2023-07-31T03:10:49;12.20;99.90
4215;DHT22;2121;48.062;7.850;2023-07-31T03:13:14;12.20;99.90
4215;DHT22;2121;48.062;7.850;2023-07-31T03:15:42;12.20;99.90
4215;DHT22;2121;48.062;7.850;2023-07-31T03:18:08;12.30;99.90
4215;DHT22;2121;48.062;7.850;2023-07-31T03:20:34;12.30;99.90
4215;DHT22;2121;48.062;7.850;2023-07-31T03:23:00;12.40;99.90
4215;DHT22;2121;48.062;7.850;2023-07-31T03:25:26;12.40;99.90
4215;DHT22;2121;48.062;7.850;2023-07-31T03:27:51;12.40;99.90
4215;DHT22;2121;48.062;7.850;2023-07-31T03:30:17;12.40;99.90
4215;DHT22;2121;48.062;7.850;2023-07-31T03:32:43;12.40;99.90
4215;DHT22;2121;48.062;7.850;2023-07-31T03:35:09;12.40;99.90
4215;DHT22;2121;48.062;7.850;2023-07-31T03:37:34;12.30;99.90
4215;DHT22;2121;48.062;7.850;2023-07-31T03:40:00;12.30;99.90
4215;DHT22;2121;48.062;7.850;2023-07-31T03:42:26;12.20;99.90
4215;DHT22;2121;48.062;7.850;2023-07-31T03:44:51;12.20;99.90
4215;DHT22;2121;48.062;7.850;2023-07-31T03:47:17;12.10;99.90
4215;DHT22;2121;48.062;7.850;2023-07-31T03:49:43;12.10;99.90
4215;DHT22;2121;48.062;7.850;2023-07-31T03:52:08;12.10;99.90
4215;DHT22;2121;48.062;7.850;2023-07-31T03:54:34;12.20;99.90
4215;DHT22;2121;48.062;7.850;2023-07-31T03:57:00;12.20;99.90
4215;DHT22;2121;48.062;7.850;2023-07-31T03:59:25;12.20;99.90
4215;DHT22;2121;48.062;7.850;2023-07-31T04:01:51;12.30;99.90
4215;DHT22;2121;48.062;7.850;2023-07-31T04:04:17;12.40;99.90
4215;DHT22;2121;48.062;7.850;2023-07-31T04:06:42;12.50;99.90
4215;DHT22;2121;48.062;7.850;2023-07-31T04:09:08;12.50;99.90
4215;DHT22;2121;48.062;7.850;2023-07-31T04:11:34;12.40;99.90
4215;DHT22;2121;48.062;7.850;2023-07-31T04:13:59;12.50;99.90
4215;DHT22;2121;48.062;7.850;2023-07-31T04:16:25;12.50;99.90
4215;DHT22;2121;48.062;7.850;2023-07-31T04:18:51;12.50;99.90
4215;DHT22;2121;48.062;7.850;2023-07-31T04:21:16;12.50;99.90
4215;DHT22;2121;48.062;7.850;2023-07-31T04:23:43;12.50;99.90
4215;DHT22;2121;48.062;7.850;2023-07-31T04:26:08;12.50;99.90
4215;DHT22;2121;48.062;7.850;2023-07-31T04:28:34;12.60;99.90
4215;DHT22;2121;48.062;7.850;2023-07-31T04:31:00;12.70;99.90
4215;DHT22;2121;48.062;7.850;2023-07-31T04:33:25;12.80;99.90
4215;DHT22;2121;48.062;7.850;2023-07-31T04:35:52;12.90;99.90
4215;DHT22;2121;48.062;7.850;2023-07-31T04:38:19;13.00;99.90
4215;DHT22;2121;48.062;7.850;2023-07-31T04:40:47;13.00;99.90
4215;DHT22;2121;48.062;7.850;2023-07-31T04:43:13;13.10;99.90
4215;DHT22;2121;48.062;7.850;2023-07-31T04:45:39;13.20;99.90
4215;DHT22;2121;48.062;7.850;2023-07-31T04:48:04;13.10;99.90
4215;DHT22;2121;48.062;7.850;2023-07-31T04:50:30;13.20;99.90
4215;DHT22;2121;48.062;7.850;2023-07-31T04:52:56;13.20;99.90
4215;DHT22;2121;48.062;7.850;2023-07-31T04:55:22;13.30;99.90
4215;DHT22;2121;48.062;7.850;2023-07-31T04:57:47;13.40;99.90
4215;DHT22;2121;48.062;7.850;2023-07-31T05:00:13;13.50;99.90
4215;DHT22;2121;48.062;7.850;2023-07-31T05:02:39;13.60;99.90
4215;DHT22;2121;48.062;7.850;2023-07-31T05:05:05;13.70;99.90
4215;DHT22;2121;48.062;7.850;2023-07-31T05:07:31;13.80;99.90
4215;DHT22;2121;48.062;7.850;2023-07-31T05:09:56;14.00;99.90
4215;DHT22;2121;48.062;7.850;2023-07-31T05:12:22;14.00;99.90
4215;DHT22;2121;48.062;7.850;2023-07-31T05:14:48;14.10;99.90
4215;DHT22;2121;48.062;7.850;2023-07-31T05:17:13;14.10;99.90
4215;DHT22;2121;48.062;7.850;2023-07-31T05:19:39;14.10;99.90
4215;DHT22;2121;48.062;7.850;2023-07-31T05:22:05;14.20;99.90
4215;DHT22;2121;48.062;7.850;2023-07-31T05:24:31;14.40;99.90
4215;DHT22;2121;48.062;7.850;2023-07-31T05:26:57;14.70;99.90
4215;DHT22;2121;48.062;7.850;2023-07-31T05:29:23;15.00;99.90
4215;DHT22;2121;48.062;7.850;2023-07-31T05:31:48;15.20;99.90
4215;DHT22;2121;48.062;7.850;2023-07-31T05:34:14;15.40;99.90
4215;DHT22;2121;48.062;7.850;2023-07-31T05:36:40;15.70;99.90
4215;DHT22;2121;48.062;7.850;2023-07-31T05:39:05;15.90;99.90
4215;DHT22;2121;48.062;7.850;2023-07-31T05:41:34;16.10;99.90
4215;DHT22;2121;48.062;7.850;2023-07-31T05:44:00;16.30;99.90
4215;DHT22;2121;48.062;7.850;2023-07-31T05:46:26;16.40;99.90
4215;DHT22;2121;48.062;7.850;2023-07-31T05:48:52;16.50;99.90
4215;DHT22;2121;48.062;7.850;2023-07-31T05:51:17;16.60;99.90
4215;DHT22;2121;48.062;7.850;2023-07-31T05:53:43;16.80;99.90
4215;DHT22;2121;48.062;7.850;2023-07-31T05:56:09;16.90;99.90
4215;DHT22;2121;48.062;7.850;2023-07-31T05:58:35;17.00;99.90
4215;DHT22;2121;48.062;7.850;2023-07-31T06:01:00;17.20;99.90
4215;DHT22;2121;48.062;7.850;2023-07-31T06:03:26;17.30;99.90
4215;DHT22;2121;48.062;7.850;2023-07-31T06:05:52;17.50;99.90
4215;DHT22;2121;48.062;7.850;2023-07-31T06:08:18;17.70;99.90
4215;DHT22;2121;48.062;7.850;2023-07-31T06:10:43;17.80;99.90
4215;DHT22;2121;48.062;7.850;2023-07-31T06:13:09;18.00;99.90
4215;DHT22;2121;48.062;7.850;2023-07-31T06:15:35;18.20;99.90
4215;DHT22;2121;48.062;7.850;2023-07-31T06:18:00;18.50;99.90
4215;DHT22;2121;48.062;7.850;2023-07-31T06:20:27;18.60;99.90
4215;DHT22;2121;48.062;7.850;2023-07-31T06:22:53;18.60;99.90
4215;DHT22;2121;48.062;7.850;2023-07-31T06:25:19;18.50;99.90
4215;DHT22;2121;48.062;7.850;2023-07-31T06:27:45;18.50;99.90
4215;DHT22;2121;48.062;7.850;2023-07-31T06:30:11;18.40;99.90
4215;DHT22;2121;48.062;7.850;2023-07-31T06:32:37;18.50;99.90
4215;DHT22;2121;48.062;7.850;2023-07-31T06:35:03;18.50;99.90
4215;DHT22;2121;48.062;7.850;2023-07-31T06:37:29;18.50;99.90
4215;DHT22;2121;48.062;7.850;2023-07-31T06:39:55;18.50;99.90
4215;DHT22;2121;48.062;7.850;2023-07-31T06:42:21;18.50;99.90
4215;DHT22;2121;48.062;7.850;2023-07-31T06:44:46;18.60;99.90
4215;DHT22;2121;48.062;7.850;2023-07-31T06:47:12;18.60;99.90
4215;DHT22;2121;48.062;7.850;2023-07-31T06:49:38;18.70;99.90
4215;DHT22;2121;48.062;7.850;2023-07-31T06:52:04;18.60;99.90
4215;DHT22;2121;48.062;7.850;2023-07-31T06:54:29;18.60;99.90
4215;DHT22;2121;48.062;7.850;2023-07-31T06:56:55;18.70;99.90
4215;DHT22;2121;48.062;7.850;2023-07-31T06:59:21;18.80;99.90
4215;DHT22;2121;48.062;7.850;2023-07-31T07:01:46;19.00;99.90
4215;DHT22;2121;48.062;7.850;2023-07-31T07:04:13;19.00;99.90
4215;DHT22;2121;48.062;7.850;2023-07-31T07:06:39;19.00;99.90
4215;DHT22;2121;48.062;7.850;2023-07-31T07:09:05;19.10;99.90
4215;DHT22;2121;48.062;7.850;2023-07-31T07:11:31;18.90;99.90
4215;DHT22;2121;48.062;7.850;2023-07-31T07:13:57;18.90;99.90
4215;DHT22;2121;48.062;7.850;2023-07-31T07:16:22;18.80;99.90
4215;DHT22;2121;48.062;7.850;2023-07-31T07:18:48;18.90;99.90
4215;DHT22;2121;48.062;7.850;2023-07-31T07:21:14;18.90;99.90
4215;DHT22;2121;48.062;7.850;2023-07-31T07:23:42;18.90;99.90
4215;DHT22;2121;48.062;7.850;2023-07-31T07:26:08;19.00;99.90
4215;DHT22;2121;48.062;7.850;2023-07-31T07:28:34;19.00;99.90
4215;DHT22;2121;48.062;7.850;2023-07-31T07:30:59;19.20;99.90
4215;DHT22;2121;48.062;7.850;2023-07-31T07:33:25;19.40;99.90
4215;DHT22;2121;48.062;7.850;2023-07-31T07:35:51;19.70;99.90
4215;DHT22;2121;48.062;7.850;2023-07-31T07:38:16;19.90;99.90
4215;DHT22;2121;48.062;7.850;2023-07-31T07:40:44;20.20;99.90
4215;DHT22;2121;48.062;7.850;2023-07-31T07:43:12;20.20;99.90
4215;DHT22;2121;48.062;7.850;2023-07-31T07:45:38;20.60;99.90
4215;DHT22;2121;48.062;7.850;2023-07-31T07:48:03;20.70;99.90
4215;DHT22;2121;48.062;7.850;2023-07-31T07:50:29;20.80;99.90
4215;DHT22;2121;48.062;7.850;2023-07-31T07:52:55;21.00;99.90
4215;DHT22;2121;48.062;7.850;2023-07-31T07:55:21;20.60;99.90
4215;DHT22;2121;48.062;7.850;2023-07-31T07:57:46;20.60;99.90
4215;DHT22;2121;48.062;7.850;2023-07-31T08:00:13;20.40;99.90
4215;DHT22;2121;48.062;7.850;2023-07-31T08:02:39;20.40;99.90
4215;DHT22;2121;48.062;7.850;2023-07-31T08:05:05;20.40;99.90
4215;DHT22;2121;48.062;7.850;2023-07-31T08:07:31;20.40;99.90
4215;DHT22;2121;48.062;7.850;2023-07-31T08:09:56;20.40;99.90
4215;DHT22;2121;48.062;7.850;2023-07-31T08:12:22;20.40;99.90
4215;DHT22;2121;48.062;7.850;2023-07-31T08:14:48;20.50;99.90
4215;DHT22;2121;48.062;7.850;2023-07-31T08:17:13;20.40;99.90
4215;DHT22;2121;48.062;7.850;2023-07-31T08:19:39;20.50;99.90
4215;DHT22;2121;48.062;7.850;2023-07-31T08:22:05;20.40;99.90
4215;DHT22;2121;48.062;7.850;2023-07-31T08:24:31;20.40;99.90
4215;DHT22;2121;48.062;7.850;2023-07-31T08:26:57;20.40;99.90
4215;DHT22;2121;48.062;7.850;2023-07-31T08:29:23;20.30;99.90
4215;DHT22;2121;48.062;7.850;2023-07-31T08:31:49;20.60;99.90
4215;DHT22;2121;48.062;7.850;2023-07-31T08:34:14;21.00;99.90
4215;DHT22;2121;48.062;7.850;2023-07-31T08:36:40;21.20;99.90
4215;DHT22;2121;48.062;7.850;2023-07-31T08:39:06;21.20;99.90
4215;DHT22;2121;48.062;7.850;2023-07-31T08:41:32;21.30;99.90
4215;DHT22;2121;48.062;7.850;2023-07-31T08:44:03;21.30;99.90
4215;DHT22;2121;48.062;7.850;2023-07-31T08:46:29;21.50;99.90
4215;DHT22;2121;48.062;7.850;2023-07-31T08:48:55;21.40;99.90
4215;DHT22;2121;48.062;7.850;2023-07-31T08:51:24;21.20;99.90
4215;DHT22;2121;48.062;7.850;2023-07-31T08:53:49;21.50;99.90
4215;DHT22;2121;48.062;7.850;2023-07-31T08:56:15;21.80;99.70
4215;DHT22;2121;48.062;7.850;2023-07-31T08:58:43;21.70;99.50
4215;DHT22;2121;48.062;7.850;2023-07-31T09:01:09;21.70;99.70
4215;DHT22;2121;48.062;7.850;2023-07-31T09:03:36;21.70;99.70
4215;DHT22;2121;48.062;7.850;2023-07-31T09:06:03;21.70;99.90
4215;DHT22;2121;48.062;7.850;2023-07-31T09:08:31;22.10;99.90
4215;DHT22;2121;48.062;7.850;2023-07-31T09:11:02;22.30;99.80
4215;DHT22;2121;48.062;7.850;2023-07-31T09:13:31;22.30;99.80
4215;DHT22;2121;48.062;7.850;2023-07-31T09:15:57;22.50;99.90
4215;DHT22;2121;48.062;7.850;2023-07-31T09:18:23;22.70;98.80
4215;DHT22;2121;48.062;7.850;2023-07-31T09:21:05;22.50;98.50
4215;DHT22;2121;48.062;7.850;2023-07-31T09:23:44;22.80;98.80
4215;DHT22;2121;48.062;7.850;2023-07-31T09:26:35;22.90;97.90
4215;DHT22;2121;48.062;7.850;2023-07-31T09:29:05;22.80;98.40
4215;DHT22;2121;48.062;7.850;2023-07-31T09:31:43;22.80;98.30
4215;DHT22;2121;48.062;7.850;2023-07-31T09:34:09;22.60;98.10
4215;DHT22;2121;48.062;7.850;2023-07-31T09:36:45;22.50;98.10
4215;DHT22;2121;48.062;7.850;2023-07-31T09:39:12;22.50;98.90
4215;DHT22;2121;48.062;7.850;2023-07-31T09:41:43;22.40;98.50
4215;DHT22;2121;48.062;7.850;2023-07-31T09:44:10;22.20;98.40
4215;DHT22;2121;48.062;7.850;2023-07-31T09:46:36;22.20;98.40
4215;DHT22;2121;48.062;7.850;2023-07-31T09:49:13;22.40;98.00
4215;DHT22;2121;48.062;7.850;2023-07-31T09:51:41;22.40;98.00
4215;DHT22;2121;48.062;7.850;2023-07-31T09:54:11;22.40;98.00
4215;DHT22;2121;48.062;7.850;2023-07-31T09:56:46;22.70;98.80
4215;DHT22;2121;48.062;7.850;2023-07-31T09:59:20;23.10;97.50
4215;DHT22;2121;48.062;7.850;2023-07-31T10:01:46;23.20;98.00
4215;DHT22;2121;48.062;7.850;2023-07-31T10:04:13;23.40;98.00
4215;DHT22;2121;48.062;7.850;2023-07-31T10:06:41;23.40;97.30
4215;DHT22;2121;48.062;7.850;2023-07-31T10:09:09;23.10;95.90
4215;DHT22;2121;48.062;7.850;2023-07-31T10:11:59;22.90;96.80
4215;DHT22;2121;48.062;7.850;2023-07-31T10:14:26;22.90;96.80
4215;DHT22;2121;48.062;7.850;2023-07-31T10:16:53;23.10;97.50
4215;DHT22;2121;48.062;7.850;2023-07-31T10:19:20;23.20;97.10
4215;DHT22;2121;48.062;7.850;2023-07-31T10:21:48;23.40;96.80
4215;DHT22;2121;48.062;7.850;2023-07-31T10:24:14;23.10;96.10
4215;DHT22;2121;48.062;7.850;2023-07-31T10:26:45;22.90;97.60
4215;DHT22;2121;48.062;7.850;2023-07-31T10:29:13;23.30;96.90
4215;DHT22;2121;48.062;7.850;2023-07-31T10:31:40;23.50;97.00
4215;DHT22;2121;48.062;7.850;2023-07-31T10:34:06;23.90;96.50
4215;DHT22;2121;48.062;7.850;2023-07-31T10:36:32;24.40;95.70
4215;DHT22;2121;48.062;7.850;2023-07-31T10:38:58;24.60;96.10
4215;DHT22;2121;48.062;7.850;2023-07-31T10:41:30;24.70;95.00
4215;DHT22;2121;48.062;7.850;2023-07-31T10:43:58;24.90;95.00
4215;DHT22;2121;48.062;7.850;2023-07-31T10:46:25;25.10;95.20
4215;DHT22;2121;48.062;7.850;2023-07-31T10:48:58;25.30;94.60
4215;DHT22;2121;48.062;7.850;2023-07-31T10:51:33;25.30;93.30
4215;DHT22;2121;48.062;7.850;2023-07-31T10:54:13;24.50;93.30
4215;DHT22;2121;48.062;7.850;2023-07-31T10:56:45;24.60;93.80
4215;DHT22;2121;48.062;7.850;2023-07-31T10:59:11;24.20;93.90
4215;DHT22;2121;48.062;7.850;2023-07-31T11:01:55;23.90;94.10
4215;DHT22;2121;48.062;7.850;2023-07-31T11:04:29;23.80;94.60
4215;DHT22;2121;48.062;7.850;2023-07-31T11:07:00;24.40;96.40
4215;DHT22;2121;48.062;7.850;2023-07-31T11:09:30;25.20;94.40
4215;DHT22;2121;48.062;7.850;2023-07-31T11:11:58;25.50;94.00
4215;DHT22;2121;48.062;7.850;2023-07-31T11:14:24;25.30;93.20
4215;DHT22;2121;48.062;7.850;2023-07-31T11:16:50;24.90;93.80
4215;DHT22;2121;48.062;7.850;2023-07-31T11:19:23;24.10;94.20
4215;DHT22;2121;48.062;7.850;2023-07-31T11:21:50;23.80;94.90
4215;DHT22;2121;48.062;7.850;2023-07-31T11:24:16;23.60;95.00
4215;DHT22;2121;48.062;7.850;2023-07-31T11:26:52;23.70;95.70
4215;DHT22;2121;48.062;7.850;2023-07-31T11:29:19;23.60;96.20
4215;DHT22;2121;48.062;7.850;2023-07-31T11:31:46;23.90;96.20
4215;DHT22;2121;48.062;7.850;2023-07-31T11:34:13;23.80;96.90
4215;DHT22;2121;48.062;7.850;2023-07-31T11:36:38;23.70;96.10
4215;DHT22;2121;48.062;7.850;2023-07-31T11:39:05;23.80;96.10
4215;DHT22;2121;48.062;7.850;2023-07-31T11:41:33;24.30;96.00
4215;DHT22;2121;48.062;7.850;2023-07-31T11:44:02;25.30;95.60
4215;DHT22;2121;48.062;7.850;2023-07-31T11:46:30;25.60;94.30
4215;DHT22;2121;48.062;7.850;2023-07-31T11:49:00;25.70;94.40
4215;DHT22;2121;48.062;7.850;2023-07-31T11:51:26;25.20;94.20
4215;DHT22;2121;48.062;7.850;2023-07-31T11:54:00;24.70;95.00
4215;DHT22;2121;48.062;7.850;2023-07-31T11:56:27;24.40;95.40
4215;DHT22;2121;48.062;7.850;2023-07-31T11:58:57;24.50;95.80
4215;DHT22;2121;48.062;7.850;2023-07-31T12:01:24;24.60;96.10
4215;DHT22;2121;48.062;7.850;2023-07-31T12:03:53;24.20;95.60
4215;DHT22;2121;48.062;7.850;2023-07-31T12:06:19;24.00;95.30
4215;DHT22;2121;48.062;7.850;2023-07-31T12:08:46;24.20;95.80
4215;DHT22;2121;48.062;7.850;2023-07-31T12:11:12;24.40;95.80
4215;DHT22;2121;48.062;7.850;2023-07-31T12:13:43;24.90;94.80
4215;DHT22;2121;48.062;7.850;2023-07-31T12:16:08;25.10;94.60
4215;DHT22;2121;48.062;7.850;2023-07-31T12:18:36;25.00;94.40
4215;DHT22;2121;48.062;7.850;2023-07-31T12:21:06;24.40;94.90
4215;DHT22;2121;48.062;7.850;2023-07-31T12:23:37;24.50;95.20
4215;DHT22;2121;48.062;7.850;2023-07-31T12:26:08;24.60;95.10
4215;DHT22;2121;48.062;7.850;2023-07-31T12:31:04;27.40;93.40
4215;DHT22;2121;48.062;7.850;2023-07-31T12:33:34;27.50;92.40
4215;DHT22;2121;48.062;7.850;2023-07-31T12:36:02;27.60;92.40
4215;DHT22;2121;48.062;7.850;2023-07-31T12:38:30;27.50;92.20
4215;DHT22;2121;48.062;7.850;2023-07-31T12:40:56;28.10;91.20
4215;DHT22;2121;48.062;7.850;2023-07-31T12:43:21;28.10;91.70
4215;DHT22;2121;48.062;7.850;2023-07-31T12:45:47;27.70;92.00
4215;DHT22;2121;48.062;7.850;2023-07-31T12:48:13;27.30;92.10
4215;DHT22;2121;48.062;7.850;2023-07-31T12:50:39;26.90;92.10
4215;DHT22;2121;48.062;7.850;2023-07-31T12:53:05;26.30;92.70
4215;DHT22;2121;48.062;7.850;2023-07-31T12:55:32;26.50;93.00
4215;DHT22;2121;48.062;7.850;2023-07-31T12:58:02;27.60;92.60
4215;DHT22;2121;48.062;7.850;2023-07-31T13:00:29;29.90;90.60
4215;DHT22;2121;48.062;7.850;2023-07-31T13:02:55;31.10;87.90
4215;DHT22;2121;48.062;7.850;2023-07-31T13:05:20;33.90;85.70
4215;DHT22;2121;48.062;7.850;2023-07-31T13:07:47;35.50;82.90
4215;DHT22;2121;48.062;7.850;2023-07-31T13:10:13;34.00;80.00
4215;DHT22;2121;48.062;7.850;2023-07-31T13:12:39;33.70;79.90
4215;DHT22;2121;48.062;7.850;2023-07-31T13:15:05;32.00;80.90
4215;DHT22;2121;48.062;7.850;2023-07-31T13:17:32;30.00;83.80
4215;DHT22;2121;48.062;7.850;2023-07-31T13:19:58;29.30;86.40
4215;DHT22;2121;48.062;7.850;2023-07-31T13:22:23;28.80;85.90
4215;DHT22;2121;48.062;7.850;2023-07-31T13:24:49;28.10;86.20
4215;DHT22;2121;48.062;7.850;2023-07-31T13:27:15;27.40;87.70
4215;DHT22;2121;48.062;7.850;2023-07-31T13:29:46;27.50;87.90
4215;DHT22;2121;48.062;7.850;2023-07-31T13:32:12;27.50;88.80
4215;DHT22;2121;48.062;7.850;2023-07-31T13:34:37;27.40;88.60
4215;DHT22;2121;48.062;7.850;2023-07-31T13:37:03;27.30;89.50
4215;DHT22;2121;48.062;7.850;2023-07-31T13:39:31;27.90;88.50
4215;DHT22;2121;48.062;7.850;2023-07-31T13:41:58;27.80;87.50
4215;DHT22;2121;48.062;7.850;2023-07-31T13:44:24;27.30;86.90
4215;DHT22;2121;48.062;7.850;2023-07-31T13:46:49;27.30;88.00
4215;DHT22;2121;48.062;7.850;2023-07-31T13:49:15;27.60;87.90
4215;DHT22;2121;48.062;7.850;2023-07-31T13:51:41;27.80;86.80
4215;DHT22;2121;48.062;7.850;2023-07-31T13:54:06;27.90;87.90
4215;DHT22;2121;48.062;7.850;2023-07-31T13:56:32;28.00;87.50
4215;DHT22;2121;48.062;7.850;2023-07-31T13:58:58;27.90;88.60
4215;DHT22;2121;48.062;7.850;2023-07-31T14:01:26;28.00;87.90
4215;DHT22;2121;48.062;7.850;2023-07-31T14:03:52;27.30;88.00
4215;DHT22;2121;48.062;7.850;2023-07-31T14:06:19;26.80;89.00
4215;DHT22;2121;48.062;7.850;2023-07-31T14:08:44;26.80;89.40
4215;DHT22;2121;48.062;7.850;2023-07-31T14:11:10;27.10;89.60
4215;DHT22;2121;48.062;7.850;2023-07-31T14:13:36;27.30;89.30
4215;DHT22;2121;48.062;7.850;2023-07-31T14:16:02;27.60;89.40
4215;DHT22;2121;48.062;7.850;2023-07-31T14:18:28;27.60;89.40
4215;DHT22;2121;48.062;7.850;2023-07-31T14:20:53;27.50;88.40
4215;DHT22;2121;48.062;7.850;2023-07-31T14:23:19;27.70;87.80
4215;DHT22;2121;48.062;7.850;2023-07-31T14:25:46;28.40;86.60
4215;DHT22;2121;48.062;7.850;2023-07-31T14:28:12;28.40;88.20
4215;DHT22;2121;48.062;7.850;2023-07-31T14:30:38;28.50;87.10
4215;DHT22;2121;48.062;7.850;2023-07-31T14:33:03;28.40;86.40
4215;DHT22;2121;48.062;7.850;2023-07-31T14:35:29;27.90;87.50
4215;DHT22;2121;48.062;7.850;2023-07-31T14:37:55;28.20;86.70
4215;DHT22;2121;48.062;7.850;2023-07-31T14:40:21;28.90;87.40
4215;DHT22;2121;48.062;7.850;2023-07-31T14:42:47;29.60;85.10
4215;DHT22;2121;48.062;7.850;2023-07-31T14:45:12;29.40;85.30
4215;DHT22;2121;48.062;7.850;2023-07-31T14:47:38;29.40;84.10
4215;DHT22;2121;48.062;7.850;2023-07-31T14:50:04;30.30;85.00
4215;DHT22;2121;48.062;7.850;2023-07-31T14:52:30;30.10;81.90
4215;DHT22;2121;48.062;7.850;2023-07-31T14:54:56;30.30;82.40
4215;DHT22;2121;48.062;7.850;2023-07-31T14:57:22;29.70;81.40
4215;DHT22;2121;48.062;7.850;2023-07-31T14:59:47;29.10;84.00
4215;DHT22;2121;48.062;7.850;2023-07-31T15:02:14;29.40;83.00
4215;DHT22;2121;48.062;7.850;2023-07-31T15:04:40;28.70;82.90
4215;DHT22;2121;48.062;7.850;2023-07-31T15:07:06;28.10;84.10
4215;DHT22;2121;48.062;7.850;2023-07-31T15:09:31;28.50;83.70
4215;DHT22;2121;48.062;7.850;2023-07-31T15:11:57;29.90;82.70
4215;DHT22;2121;48.062;7.850;2023-07-31T15:14:24;30.80;81.40
4215;DHT22;2121;48.062;7.850;2023-07-31T15:16:50;30.60;82.30
4215;DHT22;2121;48.062;7.850;2023-07-31T15:19:15;30.50;80.90
4215;DHT22;2121;48.062;7.850;2023-07-31T15:21:41;30.70;80.80
4215;DHT22;2121;48.062;7.850;2023-07-31T15:24:07;30.00;81.60
4215;DHT22;2121;48.062;7.850;2023-07-31T15:26:33;29.40;83.60
4215;DHT22;2121;48.062;7.850;2023-07-31T15:29:03;29.10;83.20
4215;DHT22;2121;48.062;7.850;2023-07-31T15:31:43;29.00;84.70
4215;DHT22;2121;48.062;7.850;2023-07-31T15:34:08;28.50;85.30
4215;DHT22;2121;48.062;7.850;2023-07-31T15:36:34;27.80;85.90
4215;DHT22;2121;48.062;7.850;2023-07-31T15:39:00;27.20;86.10
4215;DHT22;2121;48.062;7.850;2023-07-31T15:41:26;26.90;86.70
4215;DHT22;2121;48.062;7.850;2023-07-31T15:43:52;26.80;87.40
4215;DHT22;2121;48.062;7.850;2023-07-31T15:46:19;26.90;88.90
4215;DHT22;2121;48.062;7.850;2023-07-31T15:48:45;27.00;87.70
4215;DHT22;2121;48.062;7.850;2023-07-31T15:51:11;26.90;88.30
4215;DHT22;2121;48.062;7.850;2023-07-31T15:53:37;26.90;88.60
4215;DHT22;2121;48.062;7.850;2023-07-31T15:56:03;26.90;88.70
4215;DHT22;2121;48.062;7.850;2023-07-31T15:58:29;26.80;88.80
4215;DHT22;2121;48.062;7.850;2023-07-31T16:00:54;26.60;89.00
4215;DHT22;2121;48.062;7.850;2023-07-31T16:03:20;26.40;88.90
4215;DHT22;2121;48.062;7.850;2023-07-31T16:05:47;26.00;89.20
4215;DHT22;2121;48.062;7.850;2023-07-31T16:08:13;25.90;89.10
4215;DHT22;2121;48.062;7.850;2023-07-31T16:10:39;25.60;89.80